sensor_id;sensor_type;location;lat;lon;timestamp;temperature;humidity
18581;DHT22;9420;50.876;7.012;2023-07-13T00:01:21;18.09;56.40
18581;DHT22;9420;50.876;7.012;2023-07-13T00:03:49;18.16;56.11
18581;DHT22;9420;50.876;7.012;2023-07-13T00:06:15;18.03;56.83
18581;DHT22;9420;50.876;7.012;2023-07-13T00:08:42;18.03;56.54
18581;DHT22;9420;50.876;7.012;2023-07-13T00:11:08;18.09;56.17
18581;DHT22;9420;50.876;7.012;2023-07-13T00:13:35;18.00;56.48
18581;DHT22;9420;50.876;7.012;2023-07-13T00:16:05;17.92;56.73
18581;DHT22;9420;50.876;7.012;2023-07-13T00:18:32;17.90;56.95
18581;DHT22;9420;50.876;7.012;2023-07-13T00:20:58;17.92;56.71
18581;DHT22;9420;50.876;7.012;2023-07-13T00:23:30;18.07;56.31
18581;DHT22;9420;50.876;7.012;2023-07-13T00:25:59;17.97;56.72
18581;DHT22;9420;50.876;7.012;2023-07-13T00:28:29;17.93;56.77
18581;DHT22;9420;50.876;7.012;2023-07-13T00:30:56;17.99;56.54
18581;DHT22;9420;50.876;7.012;2023-07-13T00:33:24;18.02;56.56
18581;DHT22;9420;50.876;7.012;2023-07-13T00:35:50;17.96;56.53
18581;DHT22;9420;50.876;7.012;2023-07-13T00:38:17;17.93;56.76
18581;DHT22;9420;50.876;7.012;2023-07-13T00:40:44;17.87;57.05
18581;DHT22;9420;50.876;7.012;2023-07-13T00:43:13;17.89;56.95
18581;DHT22;9420;50.876;7.012;2023-07-13T00:46:11;17.86;57.04
18581;DHT22;9420;50.876;7.012;2023-07-13T00:48:40;17.87;56.79
18581;DHT22;9420;50.876;7.012;2023-07-13T00:51:07;17.87;56.78
18581;DHT22;9420;50.876;7.012;2023-07-13T00:53:34;17.75;57.46
18581;DHT22;9420;50.876;7.012;2023-07-13T00:56:01;17.66;57.62
18581;DHT22;9420;50.876;7.012;2023-07-13T00:58:30;17.56;58.11
18581;DHT22;9420;50.876;7.012;2023-07-13T01:00:57;17.69;57.56
18581;DHT22;9420;50.876;7.012;2023-07-13T01:03:24;17.65;57.83
18581;DHT22;9420;50.876;7.012;2023-07-13T01:05:52;17.48;58.25
18581;DHT22;9420;50.876;7.012;2023-07-13T01:08:20;17.52;58.04
18581;DHT22;9420;50.876;7.012;2023-07-13T01:10:54;17.51;58.25
18581;DHT22;9420;50.876;7.012;2023-07-13T01:13:21;17.39;58.67
18581;DHT22;9420;50.876;7.012;2023-07-13T01:15:50;17.46;58.55
18581;DHT22;9420;50.876;7.012;2023-07-13T01:18:20;17.42;58.38
18581;DHT22;9420;50.876;7.012;2023-07-13T01:20:53;17.28;59.02
18581;DHT22;9420;50.876;7.012;2023-07-13T01:23:20;17.39;58.65
18581;DHT22;9420;50.876;7.012;2023-07-13T01:25:47;17.32;58.85
18581;DHT22;9420;50.876;7.012;2023-07-13T01:28:13;17.32;58.67
18581;DHT22;9420;50.876;7.012;2023-07-13T01:30:43;17.28;58.85
18581;DHT22;9420;50.876;7.012;2023-07-13T01:33:11;17.34;58.68
18581;DHT22;9420;50.876;7.012;2023-07-13T01:35:39;17.32;59.01
18581;DHT22;9420;50.876;7.012;2023-07-13T01:38:10;17.41;58.59
18581;DHT22;9420;50.876;7.012;2023-07-13T01:40:37;17.31;59.13
18581;DHT22;9420;50.876;7.012;2023-07-13T01:43:05;17.28;59.33
18581;DHT22;9420;50.876;7.012;2023-07-13T01:45:32;17.23;59.45
18581;DHT22;9420;50.876;7.012;2023-07-13T01:47:59;17.24;59.43
18581;DHT22;9420;50.876;7.012;2023-07-13T01:50:26;17.21;59.63
18581;DHT22;9420;50.876;7.012;2023-07-13T01:52:53;17.07;59.96
18581;DHT22;9420;50.876;7.012;2023-07-13T01:55:21;17.06;60.04
18581;DHT22;9420;50.876;7.012;2023-07-13T01:57:48;17.02;60.41
18581;DHT22;9420;50.876;7.012;2023-07-13T02:00:15;16.87;60.76
18581;DHT22;9420;50.876;7.012;2023-07-13T02:02:43;16.96;60.51
18581;DHT22;9420;50.876;7.012;2023-07-13T02:05:10;16.86;60.91
18581;DHT22;9420;50.876;7.012;2023-07-13T02:07:37;16.84;60.82
18581;DHT22;9420;50.876;7.012;2023-07-13T02:10:05;16.97;60.50
18581;DHT22;9420;50.876;7.012;2023-07-13T02:12:33;16.88;60.69
18581;DHT22;9420;50.876;7.012;2023-07-13T02:15:00;17.00;60.40
18581;DHT22;9420;50.876;7.012;2023-07-13T02:17:27;16.84;60.97
18581;DHT22;9420;50.876;7.012;2023-07-13T02:19:54;16.88;60.72
18581;DHT22;9420;50.876;7.012;2023-07-13T02:22:28;16.73;61.16
18581;DHT22;9420;50.876;7.012;2023-07-13T02:24:55;16.70;62.07
18581;DHT22;9420;50.876;7.012;2023-07-13T02:27:22;16.70;61.50
18581;DHT22;9420;50.876;7.012;2023-07-13T02:29:50;16.84;60.91
18581;DHT22;9420;50.876;7.012;2023-07-13T02:32:17;16.88;61.28
18581;DHT22;9420;50.876;7.012;2023-07-13T02:34:44;16.76;62.70
18581;DHT22;9420;50.876;7.012;2023-07-13T02:37:11;16.38;65.41
18581;DHT22;9420;50.876;7.012;2023-07-13T02:39:38;16.32;64.34
18581;DHT22;9420;50.876;7.012;2023-07-13T02:42:05;16.60;63.79
18581;DHT22;9420;50.876;7.012;2023-07-13T02:44:32;16.53;63.50
18581;DHT22;9420;50.876;7.012;2023-07-13T02:47:00;16.49;62.99
18581;DHT22;9420;50.876;7.012;2023-07-13T02:49:26;16.70;61.95
18581;DHT22;9420;50.876;7.012;2023-07-13T02:51:53;16.80;61.03
18581;DHT22;9420;50.876;7.012;2023-07-13T02:54:20;16.79;61.22
18581;DHT22;9420;50.876;7.012;2023-07-13T02:56:46;16.84;60.77
18581;DHT22;9420;50.876;7.012;2023-07-13T02:59:13;16.76;60.82
18581;DHT22;9420;50.876;7.012;2023-07-13T03:01:39;16.67;61.07
18581;DHT22;9420;50.876;7.012;2023-07-13T03:04:07;16.65;61.08
18581;DHT22;9420;50.876;7.012;2023-07-13T03:06:34;16.53;61.45
18581;DHT22;9420;50.876;7.012;2023-07-13T03:09:01;16.42;62.00
18581;DHT22;9420;50.876;7.012;2023-07-13T03:11:29;16.44;61.80
18581;DHT22;9420;50.876;7.012;2023-07-13T03:13:57;16.41;62.00
18581;DHT22;9420;50.876;7.012;2023-07-13T03:16:23;16.35;62.16
18581;DHT22;9420;50.876;7.012;2023-07-13T03:18:50;16.21;62.68
18581;DHT22;9420;50.876;7.012;2023-07-13T03:21:18;16.24;62.84
18581;DHT22;9420;50.876;7.012;2023-07-13T03:23:45;16.26;62.54
18581;DHT22;9420;50.876;7.012;2023-07-13T03:26:14;16.38;62.40
18581;DHT22;9420;50.876;7.012;2023-07-13T03:28:42;16.29;62.74
18581;DHT22;9420;50.876;7.012;2023-07-13T03:31:11;16.24;62.82
18581;DHT22;9420;50.876;7.012;2023-07-13T03:33:38;16.24;63.11
18581;DHT22;9420;50.876;7.012;2023-07-13T03:36:06;16.28;62.75
18581;DHT22;9420;50.876;7.012;2023-07-13T03:38:35;16.25;62.95
18581;DHT22;9420;50.876;7.012;2023-07-13T03:41:01;16.19;62.98
18581;DHT22;9420;50.876;7.012;2023-07-13T03:43:28;16.28;62.62
18581;DHT22;9420;50.876;7.012;2023-07-13T03:45:55;16.35;62.33
18581;DHT22;9420;50.876;7.012;2023-07-13T03:48:22;16.25;62.94
18581;DHT22;9420;50.876;7.012;2023-07-13T03:50:48;16.30;62.74
18581;DHT22;9420;50.876;7.012;2023-07-13T03:53:15;16.36;62.35
18581;DHT22;9420;50.876;7.012;2023-07-13T03:55:45;16.42;62.22
18581;DHT22;9420;50.876;7.012;2023-07-13T03:58:30;16.35;62.60
18581;DHT22;9420;50.876;7.012;2023-07-13T04:00:56;16.33;62.77
18581;DHT22;9420;50.876;7.012;2023-07-13T04:03:23;16.30;62.93
18581;DHT22;9420;50.876;7.012;2023-07-13T04:05:50;16.35;62.83
18581;DHT22;9420;50.876;7.012;2023-07-13T04:08:17;16.42;62.98
18581;DHT22;9420;50.876;7.012;2023-07-13T04:10:45;16.39;63.57
18581;DHT22;9420;50.876;7.012;2023-07-13T04:13:12;16.39;63.52
18581;DHT22;9420;50.876;7.012;2023-07-13T04:15:40;16.49;63.20
18581;DHT22;9420;50.876;7.012;2023-07-13T04:18:06;16.38;63.98
18581;DHT22;9420;50.876;7.012;2023-07-13T04:20:34;16.53;63.67
18581;DHT22;9420;50.876;7.012;2023-07-13T04:23:01;16.48;63.57
18581;DHT22;9420;50.876;7.012;2023-07-13T04:25:28;16.49;63.43
18581;DHT22;9420;50.876;7.012;2023-07-13T04:27:56;16.48;63.46
18581;DHT22;9420;50.876;7.012;2023-07-13T04:30:23;16.42;63.98
18581;DHT22;9420;50.876;7.012;2023-07-13T04:32:50;16.44;64.09
18581;DHT22;9420;50.876;7.012;2023-07-13T04:35:17;16.41;63.96
18581;DHT22;9420;50.876;7.012;2023-07-13T04:37:45;16.26;64.41
18581;DHT22;9420;50.876;7.012;2023-07-13T04:40:12;16.39;64.06
18581;DHT22;9420;50.876;7.012;2023-07-13T04:42:39;16.35;64.13
18581;DHT22;9420;50.876;7.012;2023-07-13T04:45:07;16.33;64.52
18581;DHT22;9420;50.876;7.012;2023-07-13T04:47:34;16.29;64.90
18581;DHT22;9420;50.876;7.012;2023-07-13T04:50:00;16.30;64.93
18581;DHT22;9420;50.876;7.012;2023-07-13T04:52:27;16.36;64.85
18581;DHT22;9420;50.876;7.012;2023-07-13T04:54:54;16.38;64.81
18581;DHT22;9420;50.876;7.012;2023-07-13T04:57:21;16.44;64.89
18581;DHT22;9420;50.876;7.012;2023-07-13T04:59:47;16.51;64.71
18581;DHT22;9420;50.876;7.012;2023-07-13T05:02:15;16.55;64.77
18581;DHT22;9420;50.876;7.012;2023-07-13T05:04:42;16.65;64.56
18581;DHT22;9420;50.876;7.012;2023-07-13T05:07:09;16.73;64.77
18581;DHT22;9420;50.876;7.012;2023-07-13T05:09:36;16.75;64.90
18581;DHT22;9420;50.876;7.012;2023-07-13T05:12:03;16.73;64.76
18581;DHT22;9420;50.876;7.012;2023-07-13T05:14:30;16.86;64.32
18581;DHT22;9420;50.876;7.012;2023-07-13T05:16:56;16.87;64.28
18581;DHT22;9420;50.876;7.012;2023-07-13T05:19:24;16.86;64.24
18581;DHT22;9420;50.876;7.012;2023-07-13T05:21:51;16.99;63.93
18581;DHT22;9420;50.876;7.012;2023-07-13T05:24:17;17.03;64.11
18581;DHT22;9420;50.876;7.012;2023-07-13T05:26:44;17.00;64.43
18581;DHT22;9420;50.876;7.012;2023-07-13T05:29:11;17.14;63.99
18581;DHT22;9420;50.876;7.012;2023-07-13T05:31:38;17.15;63.83
18581;DHT22;9420;50.876;7.012;2023-07-13T05:34:04;17.21;64.07
18581;DHT22;9420;50.876;7.012;2023-07-13T05:36:33;17.27;63.75
18581;DHT22;9420;50.876;7.012;2023-07-13T05:39:00;17.44;63.73
18581;DHT22;9420;50.876;7.012;2023-07-13T05:41:27;17.46;63.55
18581;DHT22;9420;50.876;7.012;2023-07-13T05:43:53;17.61;63.22
18581;DHT22;9420;50.876;7.012;2023-07-13T05:46:20;17.65;63.39
18581;DHT22;9420;50.876;7.012;2023-07-13T05:48:49;17.81;62.79
18581;DHT22;9420;50.876;7.012;2023-07-13T05:51:15;18.00;62.82
18581;DHT22;9420;50.876;7.012;2023-07-13T05:53:43;17.90;63.17
18581;DHT22;9420;50.876;7.012;2023-07-13T05:56:10;17.83;62.90
18581;DHT22;9420;50.876;7.012;2023-07-13T05:58:37;17.82;63.09
18581;DHT22;9420;50.876;7.012;2023-07-13T06:01:06;18.00;63.28
18581;DHT22;9420;50.876;7.012;2023-07-13T06:03:33;18.09;62.84
18581;DHT22;9420;50.876;7.012;2023-07-13T06:06:00;18.03;62.81
18581;DHT22;9420;50.876;7.012;2023-07-13T06:08:27;18.11;62.96
18581;DHT22;9420;50.876;7.012;2023-07-13T06:10:55;18.14;62.56
18581;DHT22;9420;50.876;7.012;2023-07-13T06:13:27;18.29;62.46
18581;DHT22;9420;50.876;7.012;2023-07-13T06:15:54;18.20;62.71
18581;DHT22;9420;50.876;7.012;2023-07-13T06:18:20;18.31;62.66
18581;DHT22;9420;50.876;7.012;2023-07-13T06:20:47;18.44;62.11
18581;DHT22;9420;50.876;7.012;2023-07-13T06:23:13;18.21;63.17
18581;DHT22;9420;50.876;7.012;2023-07-13T06:25:40;18.31;63.36
18581;DHT22;9420;50.876;7.012;2023-07-13T06:28:08;18.69;62.45
18581;DHT22;9420;50.876;7.012;2023-07-13T06:30:34;18.55;62.33
18581;DHT22;9420;50.876;7.012;2023-07-13T06:33:01;18.82;62.15
18581;DHT22;9420;50.876;7.012;2023-07-13T06:35:28;18.68;62.63
18581;DHT22;9420;50.876;7.012;2023-07-13T06:37:57;18.79;62.69
18581;DHT22;9420;50.876;7.012;2023-07-13T06:40:23;18.75;62.61
18581;DHT22;9420;50.876;7.012;2023-07-13T06:42:50;18.59;63.12
18581;DHT22;9420;50.876;7.012;2023-07-13T06:45:19;18.54;63.18
18581;DHT22;9420;50.876;7.012;2023-07-13T06:47:45;18.61;63.26
18581;DHT22;9420;50.876;7.012;2023-07-13T06:50:12;18.57;63.45
18581;DHT22;9420;50.876;7.012;2023-07-13T06:52:39;18.71;62.96
18581;DHT22;9420;50.876;7.012;2023-07-13T06:55:07;18.81;63.24
18581;DHT22;9420;50.876;7.012;2023-07-13T06:57:34;18.67;63.06
18581;DHT22;9420;50.876;7.012;2023-07-13T07:00:01;18.61;62.80
18581;DHT22;9420;50.876;7.012;2023-07-13T07:02:29;18.87;62.54
18581;DHT22;9420;50.876;7.012;2023-07-13T07:04:55;19.06;62.68
18581;DHT22;9420;50.876;7.012;2023-07-13T07:07:23;19.02;62.19
18581;DHT22;9420;50.876;7.012;2023-07-13T07:09:50;18.79;62.68
18581;DHT22;9420;50.876;7.012;2023-07-13T07:12:17;18.68;63.24
18581;DHT22;9420;50.876;7.012;2023-07-13T07:14:43;18.62;63.38
18581;DHT22;9420;50.876;7.012;2023-07-13T07:17:10;18.75;63.27
18581;DHT22;9420;50.876;7.012;2023-07-13T07:19:39;18.52;63.96
18581;DHT22;9420;50.876;7.012;2023-07-13T07:22:06;18.69;64.00
18581;DHT22;9420;50.876;7.012;2023-07-13T07:24:32;18.75;63.27
18581;DHT22;9420;50.876;7.012;2023-07-13T07:26:59;18.84;63.27
18581;DHT22;9420;50.876;7.012;2023-07-13T07:29:25;18.76;63.29
18581;DHT22;9420;50.876;7.012;2023-07-13T07:31:53;18.94;62.94
18581;DHT22;9420;50.876;7.012;2023-07-13T07:34:19;18.94;62.82
18581;DHT22;9420;50.876;7.012;2023-07-13T07:36:47;19.05;63.00
18581;DHT22;9420;50.876;7.012;2023-07-13T07:39:14;19.10;62.41
18581;DHT22;9420;50.876;7.012;2023-07-13T07:41:42;19.16;62.22
18581;DHT22;9420;50.876;7.012;2023-07-13T07:44:08;19.23;62.06
18581;DHT22;9420;50.876;7.012;2023-07-13T07:46:36;19.24;62.05
18581;DHT22;9420;50.876;7.012;2023-07-13T07:49:03;19.40;61.46
18581;DHT22;9420;50.876;7.012;2023-07-13T07:51:30;19.84;60.88
18581;DHT22;9420;50.876;7.012;2023-07-13T07:53:58;19.94;60.25
18581;DHT22;9420;50.876;7.012;2023-07-13T07:56:25;19.68;60.99
18581;DHT22;9420;50.876;7.012;2023-07-13T07:58:51;19.79;60.49
18581;DHT22;9420;50.876;7.012;2023-07-13T08:01:18;19.95;60.05
18581;DHT22;9420;50.876;7.012;2023-07-13T08:03:44;20.28;59.31
18581;DHT22;9420;50.876;7.012;2023-07-13T08:06:11;20.16;59.48
18581;DHT22;9420;50.876;7.012;2023-07-13T08:08:38;20.28;58.82
18581;DHT22;9420;50.876;7.012;2023-07-13T08:11:08;20.39;59.01
18581;DHT22;9420;50.876;7.012;2023-07-13T08:13:35;20.56;58.65
18581;DHT22;9420;50.876;7.012;2023-07-13T08:16:03;20.95;57.20
18581;DHT22;9420;50.876;7.012;2023-07-13T08:18:30;21.12;56.94
18581;DHT22;9420;50.876;7.012;2023-07-13T08:20:57;21.29;56.66
18581;DHT22;9420;50.876;7.012;2023-07-13T08:23:24;21.35;56.76
18581;DHT22;9420;50.876;7.012;2023-07-13T08:25:54;21.21;57.01
18581;DHT22;9420;50.876;7.012;2023-07-13T08:28:23;21.52;56.02
18581;DHT22;9420;50.876;7.012;2023-07-13T08:30:50;22.08;55.84
18581;DHT22;9420;50.876;7.012;2023-07-13T08:33:17;21.97;56.20
18581;DHT22;9420;50.876;7.012;2023-07-13T08:35:45;21.56;55.16
18581;DHT22;9420;50.876;7.012;2023-07-13T08:38:12;21.49;54.99
18581;DHT22;9420;50.876;7.012;2023-07-13T08:40:39;21.59;55.54
18581;DHT22;9420;50.876;7.012;2023-07-13T08:43:11;21.48;55.93
18581;DHT22;9420;50.876;7.012;2023-07-13T08:45:44;21.50;55.29
18581;DHT22;9420;50.876;7.012;2023-07-13T08:48:17;21.31;56.07
18581;DHT22;9420;50.876;7.012;2023-07-13T08:50:49;21.65;55.70
18581;DHT22;9420;50.876;7.012;2023-07-13T08:53:18;22.22;54.06
18581;DHT22;9420;50.876;7.012;2023-07-13T08:55:45;22.40;53.06
18581;DHT22;9420;50.876;7.012;2023-07-13T08:58:14;22.48;53.52
18581;DHT22;9420;50.876;7.012;2023-07-13T09:00:47;22.61;52.53
18581;DHT22;9420;50.876;7.012;2023-07-13T09:03:20;22.62;52.58
18581;DHT22;9420;50.876;7.012;2023-07-13T09:05:50;22.66;52.97
18581;DHT22;9420;50.876;7.012;2023-07-13T09:08:30;22.38;52.92
18581;DHT22;9420;50.876;7.012;2023-07-13T09:11:06;22.40;52.96
18581;DHT22;9420;50.876;7.012;2023-07-13T09:13:44;22.77;52.42
18581;DHT22;9420;50.876;7.012;2023-07-13T09:16:13;22.33;52.86
18581;DHT22;9420;50.876;7.012;2023-07-13T09:18:42;21.59;54.62
18581;DHT22;9420;50.876;7.012;2023-07-13T09:21:12;21.59;54.66
18581;DHT22;9420;50.876;7.012;2023-07-13T09:23:40;21.62;54.20
18581;DHT22;9420;50.876;7.012;2023-07-13T09:26:11;21.63;54.44
18581;DHT22;9420;50.876;7.012;2023-07-13T09:28:42;22.07;54.11
18581;DHT22;9420;50.876;7.012;2023-07-13T09:31:15;22.37;53.75
18581;DHT22;9420;50.876;7.012;2023-07-13T09:33:42;23.09;52.21
18581;DHT22;9420;50.876;7.012;2023-07-13T09:36:18;22.98;51.66
18581;DHT22;9420;50.876;7.012;2023-07-13T09:38:47;23.02;51.76
18581;DHT22;9420;50.876;7.012;2023-07-13T09:41:19;23.22;50.81
18581;DHT22;9420;50.876;7.012;2023-07-13T09:44:07;23.16;51.33
18581;DHT22;9420;50.876;7.012;2023-07-13T09:46:37;23.10;51.63
18581;DHT22;9420;50.876;7.012;2023-07-13T09:49:04;23.10;51.52
18581;DHT22;9420;50.876;7.012;2023-07-13T09:51:30;23.86;49.98
18581;DHT22;9420;50.876;7.012;2023-07-13T09:53:57;24.33;49.01
18581;DHT22;9420;50.876;7.012;2023-07-13T09:56:26;24.57;48.22
18581;DHT22;9420;50.876;7.012;2023-07-13T09:58:54;23.78;48.47
18581;DHT22;9420;50.876;7.012;2023-07-13T10:01:32;24.05;49.08
18581;DHT22;9420;50.876;7.012;2023-07-13T10:04:01;24.52;47.66
18581;DHT22;9420;50.876;7.012;2023-07-13T10:06:28;24.36;47.45
18581;DHT22;9420;50.876;7.012;2023-07-13T10:08:56;25.05;46.82
18581;DHT22;9420;50.876;7.012;2023-07-13T10:11:26;24.64;46.67
18581;DHT22;9420;50.876;7.012;2023-07-13T10:13:56;25.25;46.13
18581;DHT22;9420;50.876;7.012;2023-07-13T10:16:24;25.24;45.68
18581;DHT22;9420;50.876;7.012;2023-07-13T10:18:55;25.03;46.96
18581;DHT22;9420;50.876;7.012;2023-07-13T10:21:30;23.94;48.24
18581;DHT22;9420;50.876;7.012;2023-07-13T10:24:04;24.05;47.51
18581;DHT22;9420;50.876;7.012;2023-07-13T10:26:33;24.12;47.83
18581;DHT22;9420;50.876;7.012;2023-07-13T10:29:04;23.92;47.50
18581;DHT22;9420;50.876;7.012;2023-07-13T10:31:32;24.19;46.93
18581;DHT22;9420;50.876;7.012;2023-07-13T10:34:01;24.10;46.99
18581;DHT22;9420;50.876;7.012;2023-07-13T10:36:32;23.47;46.91
18581;DHT22;9420;50.876;7.012;2023-07-13T10:39:02;24.08;46.89
18581;DHT22;9420;50.876;7.012;2023-07-13T10:41:31;23.70;47.01
18581;DHT22;9420;50.876;7.012;2023-07-13T10:44:00;23.98;46.33
18581;DHT22;9420;50.876;7.012;2023-07-13T10:46:28;23.74;47.01
18581;DHT22;9420;50.876;7.012;2023-07-13T10:48:58;24.02;47.26
18581;DHT22;9420;50.876;7.012;2023-07-13T10:51:26;24.35;46.46
18581;DHT22;9420;50.876;7.012;2023-07-13T10:54:18;23.53;47.59
18581;DHT22;9420;50.876;7.012;2023-07-13T10:56:50;24.16;46.06
18581;DHT22;9420;50.876;7.012;2023-07-13T10:59:18;24.26;46.18
18581;DHT22;9420;50.876;7.012;2023-07-13T11:01:54;24.40;45.53
18581;DHT22;9420;50.876;7.012;2023-07-13T11:04:22;25.21;44.59
18581;DHT22;9420;50.876;7.012;2023-07-13T11:06:52;25.92;42.87
18581;DHT22;9420;50.876;7.012;2023-07-13T11:09:39;25.07;45.21
18581;DHT22;9420;50.876;7.012;2023-07-13T11:12:08;26.41;42.40
18581;DHT22;9420;50.876;7.012;2023-07-13T11:14:43;25.38;43.51
18581;DHT22;9420;50.876;7.012;2023-07-13T11:17:33;25.05;44.94
18581;DHT22;9420;50.876;7.012;2023-07-13T11:20:18;24.25;46.30
18581;DHT22;9420;50.876;7.012;2023-07-13T11:22:46;24.53;45.60
18581;DHT22;9420;50.876;7.012;2023-07-13T11:25:29;24.13;46.58
18581;DHT22;9420;50.876;7.012;2023-07-13T11:28:15;23.51;47.16
18581;DHT22;9420;50.876;7.012;2023-07-13T11:30:45;23.23;47.76
18581;DHT22;9420;50.876;7.012;2023-07-13T11:33:16;23.24;48.14
18581;DHT22;9420;50.876;7.012;2023-07-13T11:35:49;23.30;48.07
18581;DHT22;9420;50.876;7.012;2023-07-13T11:38:18;23.84;47.51
18581;DHT22;9420;50.876;7.012;2023-07-13T11:40:48;25.01;46.69
18581;DHT22;9420;50.876;7.012;2023-07-13T11:43:16;23.94;46.96
18581;DHT22;9420;50.876;7.012;2023-07-13T11:45:44;23.50;47.74
18581;DHT22;9420;50.876;7.012;2023-07-13T11:48:21;23.03;48.67
18581;DHT22;9420;50.876;7.012;2023-07-13T11:50:53;23.14;48.72
18581;DHT22;9420;50.876;7.012;2023-07-13T11:53:22;23.22;48.86
18581;DHT22;9420;50.876;7.012;2023-07-13T11:55:52;23.30;47.99
18581;DHT22;9420;50.876;7.012;2023-07-13T11:58:23;23.26;48.56
18581;DHT22;9420;50.876;7.012;2023-07-13T12:00:50;23.75;48.07
18581;DHT22;9420;50.876;7.012;2023-07-13T12:03:22;23.37;48.40
18581;DHT22;9420;50.876;7.012;2023-07-13T12:06:01;23.50;48.49
18581;DHT22;9420;50.876;7.012;2023-07-13T12:08:28;23.68;47.09
18581;DHT22;9420;50.876;7.012;2023-07-13T12:11:05;23.50;47.95
18581;DHT22;9420;50.876;7.012;2023-07-13T12:13:37;23.41;48.25
18581;DHT22;9420;50.876;7.012;2023-07-13T12:16:16;23.02;48.16
18581;DHT22;9420;50.876;7.012;2023-07-13T12:18:44;22.83;48.59
18581;DHT22;9420;50.876;7.012;2023-07-13T12:21:17;22.69;48.15
18581;DHT22;9420;50.876;7.012;2023-07-13T12:23:47;22.72;47.96
18581;DHT22;9420;50.876;7.012;2023-07-13T12:26:17;22.83;47.35
18581;DHT22;9420;50.876;7.012;2023-07-13T12:28:46;23.07;47.00
18581;DHT22;9420;50.876;7.012;2023-07-13T12:31:25;23.39;47.10
18581;DHT22;9420;50.876;7.012;2023-07-13T12:33:59;23.40;46.58
18581;DHT22;9420;50.876;7.012;2023-07-13T12:36:29;23.46;47.30
18581;DHT22;9420;50.876;7.012;2023-07-13T12:39:01;23.53;45.41
18581;DHT22;9420;50.876;7.012;2023-07-13T12:41:32;23.84;45.60
18581;DHT22;9420;50.876;7.012;2023-07-13T12:44:00;23.68;44.81
18581;DHT22;9420;50.876;7.012;2023-07-13T12:46:27;23.71;45.25
18581;DHT22;9420;50.876;7.012;2023-07-13T12:48:57;23.60;45.37
18581;DHT22;9420;50.876;7.012;2023-07-13T12:51:25;23.51;45.36
18581;DHT22;9420;50.876;7.012;2023-07-13T12:53:57;23.26;46.06
18581;DHT22;9420;50.876;7.012;2023-07-13T12:56:26;23.50;46.32
18581;DHT22;9420;50.876;7.012;2023-07-13T12:59:01;23.62;45.51
18581;DHT22;9420;50.876;7.012;2023-07-13T13:01:31;23.53;44.82
18581;DHT22;9420;50.876;7.012;2023-07-13T13:04:01;23.62;44.27
18581;DHT22;9420;50.876;7.012;2023-07-13T13:06:32;23.71;44.53
18581;DHT22;9420;50.876;7.012;2023-07-13T13:09:01;23.95;43.82
18581;DHT22;9420;50.876;7.012;2023-07-13T13:11:31;24.32;43.00
18581;DHT22;9420;50.876;7.012;2023-07-13T13:13:59;24.18;43.74
18581;DHT22;9420;50.876;7.012;2023-07-13T13:16:30;24.16;42.73
18581;DHT22;9420;50.876;7.012;2023-07-13T13:19:00;25.59;40.83
18581;DHT22;9420;50.876;7.012;2023-07-13T13:21:27;26.88;38.82
18581;DHT22;9420;50.876;7.012;2023-07-13T13:23:54;27.80;37.86
18581;DHT22;9420;50.876;7.012;2023-07-13T13:26:21;28.06;37.02
18581;DHT22;9420;50.876;7.012;2023-07-13T13:28:48;28.31;36.31
18581;DHT22;9420;50.876;7.012;2023-07-13T13:31:16;28.53;35.89
18581;DHT22;9420;50.876;7.012;2023-07-13T13:33:45;29.02;35.58
18581;DHT22;9420;50.876;7.012;2023-07-13T13:36:15;29.79;35.80
18581;DHT22;9420;50.876;7.012;2023-07-13T13:38:42;30.14;33.80
18581;DHT22;9420;50.876;7.012;2023-07-13T13:41:10;29.59;34.19
18581;DHT22;9420;50.876;7.012;2023-07-13T13:43:38;29.94;33.43
18581;DHT22;9420;50.876;7.012;2023-07-13T13:46:13;27.26;37.79
18581;DHT22;9420;50.876;7.012;2023-07-13T13:48:41;28.02;37.10
18581;DHT22;9420;50.876;7.012;2023-07-13T13:51:14;29.93;34.82
18581;DHT22;9420;50.876;7.012;2023-07-13T13:53:41;29.48;35.79
18581;DHT22;9420;50.876;7.012;2023-07-13T13:56:08;27.85;37.33
18581;DHT22;9420;50.876;7.012;2023-07-13T13:58:34;29.87;34.95
18581;DHT22;9420;50.876;7.012;2023-07-13T14:01:02;30.23;33.02
18581;DHT22;9420;50.876;7.012;2023-07-13T14:03:31;30.41;33.03
18581;DHT22;9420;50.876;7.012;2023-07-13T14:06:00;29.56;34.50
18581;DHT22;9420;50.876;7.012;2023-07-13T14:08:26;29.98;33.73
18581;DHT22;9420;50.876;7.012;2023-07-13T14:10:56;28.56;34.76
18581;DHT22;9420;50.876;7.012;2023-07-13T14:13:26;27.47;37.14
18581;DHT22;9420;50.876;7.012;2023-07-13T14:15:54;25.90;39.52
18581;DHT22;9420;50.876;7.012;2023-07-13T14:18:22;25.96;39.88
18581;DHT22;9420;50.876;7.012;2023-07-13T14:20:49;25.22;40.09
18581;DHT22;9420;50.876;7.012;2023-07-13T14:23:26;26.35;38.56
18581;DHT22;9420;50.876;7.012;2023-07-13T14:25:55;25.94;38.45
18581;DHT22;9420;50.876;7.012;2023-07-13T14:28:24;25.47;40.02
18581;DHT22;9420;50.876;7.012;2023-07-13T14:30:51;27.77;36.03
18581;DHT22;9420;50.876;7.012;2023-07-13T14:33:19;28.19;34.80
18581;DHT22;9420;50.876;7.012;2023-07-13T14:35:47;28.36;35.16
18581;DHT22;9420;50.876;7.012;2023-07-13T14:38:16;28.54;34.91
18581;DHT22;9420;50.876;7.012;2023-07-13T14:40:44;28.88;34.59
18581;DHT22;9420;50.876;7.012;2023-07-13T14:43:12;29.00;33.92
18581;DHT22;9420;50.876;7.012;2023-07-13T14:45:44;29.21;33.73
18581;DHT22;9420;50.876;7.012;2023-07-13T14:48:15;29.12;34.24
18581;DHT22;9420;50.876;7.012;2023-07-13T14:50:44;27.95;35.07
18581;DHT22;9420;50.876;7.012;2023-07-13T14:53:13;28.61;34.95
18581;DHT22;9420;50.876;7.012;2023-07-13T14:55:39;27.48;36.34
18581;DHT22;9420;50.876;7.012;2023-07-13T14:58:09;28.22;35.77
18581;DHT22;9420;50.876;7.012;2023-07-13T15:00:36;28.57;35.59
18581;DHT22;9420;50.876;7.012;2023-07-13T15:03:04;29.10;33.82
18581;DHT22;9420;50.876;7.012;2023-07-13T15:05:32;28.94;34.41
18581;DHT22;9420;50.876;7.012;2023-07-13T15:08:00;28.29;35.51
18581;DHT22;9420;50.876;7.012;2023-07-13T15:10:29;28.81;34.65
18581;DHT22;9420;50.876;7.012;2023-07-13T15:12:59;29.70;33.72
18581;DHT22;9420;50.876;7.012;2023-07-13T15:15:29;29.25;34.21
18581;DHT22;9420;50.876;7.012;2023-07-13T15:17:57;29.15;33.98
18581;DHT22;9420;50.876;7.012;2023-07-13T15:20:27;29.70;33.83
18581;DHT22;9420;50.876;7.012;2023-07-13T15:22:54;27.41;36.49
18581;DHT22;9420;50.876;7.012;2023-07-13T15:25:23;28.80;34.68
18581;DHT22;9420;50.876;7.012;2023-07-13T15:27:50;28.29;34.91
18581;DHT22;9420;50.876;7.012;2023-07-13T15:30:17;28.73;34.85
18581;DHT22;9420;50.876;7.012;2023-07-13T15:32:46;28.20;35.82
18581;DHT22;9420;50.876;7.012;2023-07-13T15:35:14;26.44;39.03
18581;DHT22;9420;50.876;7.012;2023-07-13T15:37:42;25.94;39.55
18581;DHT22;9420;50.876;7.012;2023-07-13T15:40:10;25.49;40.47
18581;DHT22;9420;50.876;7.012;2023-07-13T15:42:38;27.06;38.09
18581;DHT22;9420;50.876;7.012;2023-07-13T15:45:14;28.22;36.45
18581;DHT22;9420;50.876;7.012;2023-07-13T15:47:42;28.20;36.19
18581;DHT22;9420;50.876;7.012;2023-07-13T15:50:13;28.31;36.40
18581;DHT22;9420;50.876;7.012;2023-07-13T15:52:41;27.61;36.89
18581;DHT22;9420;50.876;7.012;2023-07-13T15:55:11;27.14;37.92